150005 MDSDYMYX
SPDR31 MDSD 150005Z
SPECI
SPECI MDSD 150005Z 02015KT 8000 -TSRA FEW014CB SCT016 BKN070 25/22 
Q1011 CB/NE/NW/N=

SADR31 MDSD 150000Z
METAR

METAR MDPP 150000Z 02004KT 9999 BKN016 BKN280 23/21 Q1013=
METAR MDST 150000Z 31004KT 9999 FEW014CB SCT014 SCT080 23/20 Q1012 
CB/E/W=
METAR MDPC 150000Z 00000KT 9999 FEW017CB SCT018 BKN300 24/23 Q1011 
CB/NW/N=
METAR MDBH 150000Z 00000KT 9999 FEW014CB FEW015 SCT100 25/23 Q1012 
CB/N=
METAR MDSD 150000Z 02010KT 9999 FEW016CB SCT018 BKN070 26/22 Q1011 
CB/NE/NW/N=
METAR MDLR 150000Z 00000KT 9999 FEW016CB SCT018 BKN300 24/23 Q1011 
CB/NE=
METAR MDCY 150000Z 04020KT 9999 BKN016 BKN070 23/22 Q1012=

OTROS VINCULOS DE INTERES
Carta de Altura
Vuelos de Bajo Nivel
Airmet
Sigmet
Metar
TAF
Tiempo Significativos
Imagen Satelital
De interes sobre Cambio Climatico
Boletin Vigilancia Climática
Temporada Ciclónica 2013
Políticas de Calidad
Glosario
campaña mundial para mejorar los servicios meteorológicos y climáticos
Datos Astronomicos
Boletin Hidrometeorológico
Lluvias Acumuladas
Mapa de Precipitación Diaria
Resumen Agrometeorológico
Agroclima Mensual
Incidencias del Clima
Desviación Precipitaciones
Perspectiva Agrometeorológica Decadal
Boletín Decadal del Indice de Humedad
Portada | Términos de uso | Política de privacidad | Declaración Legal
©2007 Oficina Nacional de Meteorología. Todos los Derechos Reservados. | Desarrollado por: Mixona Network